sensor_id;sensor_type;location;lat;lon;timestamp;pressure;altitude;pressure_sealevel;temperature;humidity
75136;BME280;63707;52.212;9.540;2024-03-02T00:00:18;98854.81;;;6.66;100.00
75136;BME280;63707;52.212;9.540;2024-03-02T00:02:47;98852.28;;;6.58;100.00
75136;BME280;63707;52.212;9.540;2024-03-02T00:05:14;98846.47;;;6.54;100.00
75136;BME280;63707;52.212;9.540;2024-03-02T00:07:41;98848.97;;;6.62;100.00
75136;BME280;63707;52.212;9.540;2024-03-02T00:10:09;98846.88;;;6.65;100.00
75136;BME280;63707;52.212;9.540;2024-03-02T00:12:37;98855.41;;;6.68;100.00
75136;BME280;63707;52.212;9.540;2024-03-02T00:15:19;98853.75;;;6.74;100.00
75136;BME280;63707;52.212;9.540;2024-03-02T00:17:52;98856.25;;;6.69;100.00
75136;BME280;63707;52.212;9.540;2024-03-02T00:20:22;98848.56;;;6.66;100.00
75136;BME280;63707;52.212;9.540;2024-03-02T00:22:48;98859.38;;;6.66;100.00
75136;BME280;63707;52.212;9.540;2024-03-02T00:25:13;98861.44;;;6.70;100.00
75136;BME280;63707;52.212;9.540;2024-03-02T00:27:39;98856.66;;;6.72;100.00
75136;BME280;63707;52.212;9.540;2024-03-02T00:30:37;98852.72;;;6.68;100.00
75136;BME280;63707;52.212;9.540;2024-03-02T00:33:01;98855.22;;;6.70;100.00
75136;BME280;63707;52.212;9.540;2024-03-02T00:35:27;98857.69;;;6.71;100.00
75136;BME280;63707;52.212;9.540;2024-03-02T00:37:52;98851.25;;;6.72;100.00
75136;BME280;63707;52.212;9.540;2024-03-02T00:40:19;98858.31;;;6.80;100.00
75136;BME280;63707;52.212;9.540;2024-03-02T00:42:45;98850.41;;;6.78;100.00
75136;BME280;63707;52.212;9.540;2024-03-02T00:45:12;98854.78;;;6.73;100.00
75136;BME280;63707;52.212;9.540;2024-03-02T00:47:38;98857.69;;;6.71;100.00
75136;BME280;63707;52.212;9.540;2024-03-02T00:50:05;98855.63;;;6.73;100.00
75136;BME280;63707;52.212;9.540;2024-03-02T00:52:32;98864.56;;;6.74;100.00
75136;BME280;63707;52.212;9.540;2024-03-02T00:54:58;98860.41;;;6.78;100.00
75136;BME280;63707;52.212;9.540;2024-03-02T00:57:24;98860.63;;;6.70;100.00
75136;BME280;63707;52.212;9.540;2024-03-02T00:59:51;98865.81;;;6.71;100.00
75136;BME280;63707;52.212;9.540;2024-03-02T01:02:18;98862.50;;;6.62;100.00
75136;BME280;63707;52.212;9.540;2024-03-02T01:04:45;98858.97;;;6.69;100.00
75136;BME280;63707;52.212;9.540;2024-03-02T01:07:10;98856.69;;;6.66;100.00
75136;BME280;63707;52.212;9.540;2024-03-02T01:09:36;98855.41;;;6.55;100.00
75136;BME280;63707;52.212;9.540;2024-03-02T01:12:01;98861.88;;;6.54;100.00
75136;BME280;63707;52.212;9.540;2024-03-02T01:14:27;98857.91;;;6.56;100.00
75136;BME280;63707;52.212;9.540;2024-03-02T01:16:53;98855.00;;;6.51;100.00
75136;BME280;63707;52.212;9.540;2024-03-02T01:19:20;98852.72;;;6.48;100.00
75136;BME280;63707;52.212;9.540;2024-03-02T01:21:46;98862.72;;;6.48;100.00
75136;BME280;63707;52.212;9.540;2024-03-02T01:24:11;98872.28;;;6.57;100.00
75136;BME280;63707;52.212;9.540;2024-03-02T01:26:38;98865.81;;;6.51;100.00
75136;BME280;63707;52.212;9.540;2024-03-02T01:29:04;98863.94;;;6.52;100.00
75136;BME280;63707;52.212;9.540;2024-03-02T01:31:29;98867.69;;;6.44;100.00
75136;BME280;63707;52.212;9.540;2024-03-02T01:33:54;98866.25;;;6.35;100.00
75136;BME280;63707;52.212;9.540;2024-03-02T01:36:21;98867.72;;;6.24;100.00
75136;BME280;63707;52.212;9.540;2024-03-02T01:38:47;98854.59;;;6.28;100.00
75136;BME280;63707;52.212;9.540;2024-03-02T01:41:12;98844.81;;;6.27;100.00
75136;BME280;63707;52.212;9.540;2024-03-02T01:43:38;98839.00;;;6.23;100.00
75136;BME280;63707;52.212;9.540;2024-03-02T01:46:04;98830.47;;;6.26;100.00
75136;BME280;63707;52.212;9.540;2024-03-02T01:48:29;98836.09;;;6.25;100.00
75136;BME280;63707;52.212;9.540;2024-03-02T01:50:55;98831.94;;;6.22;100.00
75136;BME280;63707;52.212;9.540;2024-03-02T01:53:22;98822.97;;;6.22;100.00
75136;BME280;63707;52.212;9.540;2024-03-02T01:55:47;98820.91;;;6.17;100.00
75136;BME280;63707;52.212;9.540;2024-03-02T01:58:13;98824.84;;;6.28;100.00
75136;BME280;63707;52.212;9.540;2024-03-02T02:00:38;98805.72;;;6.16;100.00
75136;BME280;63707;52.212;9.540;2024-03-02T02:03:04;98801.75;;;6.06;100.00
75136;BME280;63707;52.212;9.540;2024-03-02T02:05:29;98784.50;;;6.00;100.00
75136;BME280;63707;52.212;9.540;2024-03-02T02:07:55;98778.88;;;5.95;100.00
75136;BME280;63707;52.212;9.540;2024-03-02T02:10:22;98776.56;;;5.85;100.00
75136;BME280;63707;52.212;9.540;2024-03-02T02:12:47;98748.28;;;5.75;100.00
75136;BME280;63707;52.212;9.540;2024-03-02T02:15:26;98778.00;;;5.75;100.00
75136;BME280;63707;52.212;9.540;2024-03-02T02:17:52;98748.28;;;5.75;100.00
75136;BME280;63707;52.212;9.540;2024-03-02T02:20:17;98748.91;;;5.77;100.00
75136;BME280;63707;52.212;9.540;2024-03-02T02:22:55;98744.13;;;5.72;100.00
75136;BME280;63707;52.212;9.540;2024-03-02T02:25:21;98742.66;;;5.69;100.00
75136;BME280;63707;52.212;9.540;2024-03-02T02:27:46;98735.59;;;5.68;100.00
75136;BME280;63707;52.212;9.540;2024-03-02T02:30:12;98731.84;;;5.63;100.00
75136;BME280;63707;52.212;9.540;2024-03-02T02:32:38;98733.06;;;5.60;100.00
75136;BME280;63707;52.212;9.540;2024-03-02T02:35:04;98734.56;;;5.76;100.00
75136;BME280;63707;52.212;9.540;2024-03-02T02:37:30;98732.50;;;5.72;100.00
75136;BME280;63707;52.212;9.540;2024-03-02T02:39:57;98725.63;;;5.69;100.00
75136;BME280;63707;52.212;9.540;2024-03-02T02:42:23;98729.75;;;5.65;100.00
75136;BME280;63707;52.212;9.540;2024-03-02T02:44:48;98726.66;;;5.68;100.00
75136;BME280;63707;52.212;9.540;2024-03-02T02:47:14;98724.59;;;5.70;100.00
75136;BME280;63707;52.212;9.540;2024-03-02T02:49:40;98728.13;;;5.71;100.00
75136;BME280;63707;52.212;9.540;2024-03-02T02:52:05;98730.41;;;5.74;100.00
75136;BME280;63707;52.212;9.540;2024-03-02T02:54:31;98729.38;;;5.68;100.00
75136;BME280;63707;52.212;9.540;2024-03-02T02:56:57;98725.63;;;5.69;100.00
75136;BME280;63707;52.212;9.540;2024-03-02T02:59:24;98722.50;;;5.72;100.00
75136;BME280;63707;52.212;9.540;2024-03-02T03:01:51;98732.47;;;5.78;100.00
75136;BME280;63707;52.212;9.540;2024-03-02T03:04:17;98725.38;;;5.64;100.00
75136;BME280;63707;52.212;9.540;2024-03-02T03:06:43;98715.81;;;5.55;100.00
75136;BME280;63707;52.212;9.540;2024-03-02T03:09:08;98728.72;;;5.66;100.00
75136;BME280;63707;52.212;9.540;2024-03-02T03:11:36;98726.84;;;5.66;100.00
75136;BME280;63707;52.212;9.540;2024-03-02T03:14:03;98719.81;;;5.72;100.00
75136;BME280;63707;52.212;9.540;2024-03-02T03:16:30;98721.66;;;5.78;100.00
75136;BME280;63707;52.212;9.540;2024-03-02T03:18:55;98725.81;;;5.81;100.00
75136;BME280;63707;52.212;9.540;2024-03-02T03:21:21;98726.03;;;5.73;100.00
75136;BME280;63707;52.212;9.540;2024-03-02T03:23:46;98718.34;;;5.76;100.00
75136;BME280;63707;52.212;9.540;2024-03-02T03:26:12;98716.47;;;5.70;100.00
75136;BME280;63707;52.212;9.540;2024-03-02T03:28:37;98704.81;;;5.43;100.00
75136;BME280;63707;52.212;9.540;2024-03-02T03:31:04;98699.19;;;5.31;100.00
75136;BME280;63707;52.212;9.540;2024-03-02T03:33:30;98702.88;;;5.04;100.00
75136;BME280;63707;52.212;9.540;2024-03-02T03:35:55;98670.66;;;4.83;100.00
75136;BME280;63707;52.212;9.540;2024-03-02T03:38:21;98524.47;;;4.59;100.00
75136;BME280;63707;52.212;9.540;2024-03-02T03:40:46;98652.41;;;4.30;100.00
75136;BME280;63707;52.212;9.540;2024-03-02T03:43:12;98815.97;;;4.23;100.00
75136;BME280;63707;52.212;9.540;2024-03-02T03:45:38;98883.69;;;4.14;100.00
75136;BME280;63707;52.212;9.540;2024-03-02T03:48:05;98964.25;;;4.02;100.00
75136;BME280;63707;52.212;9.540;2024-03-02T03:50:31;99075.78;;;4.01;100.00
75136;BME280;63707;52.212;9.540;2024-03-02T03:52:56;99180.69;;;3.88;100.00
75136;BME280;63707;52.212;9.540;2024-03-02T03:55:22;99311.06;;;3.87;100.00
75136;BME280;63707;52.212;9.540;2024-03-02T03:57:47;99398.13;;;3.87;100.00
75136;BME280;63707;52.212;9.540;2024-03-02T04:00:14;99449.53;;;3.86;100.00
75136;BME280;63707;52.212;9.540;2024-03-02T04:02:39;99477.00;;;3.81;100.00
75136;BME280;63707;52.212;9.540;2024-03-02T04:05:07;99515.75;;;3.72;100.00
75136;BME280;63707;52.212;9.540;2024-03-02T04:07:36;99559.94;;;3.55;100.00
75136;BME280;63707;52.212;9.540;2024-03-02T04:10:07;99616.19;;;3.50;100.00
75136;BME280;63707;52.212;9.540;2024-03-02T04:12:33;99713.47;;;3.55;100.00
75136;BME280;63707;52.212;9.540;2024-03-02T04:14:58;99767.53;;;3.53;100.00
75136;BME280;63707;52.212;9.540;2024-03-02T04:17:24;99803.03;;;3.48;100.00
75136;BME280;63707;52.212;9.540;2024-03-02T04:19:49;99859.13;;;3.69;100.00
75136;BME280;63707;52.212;9.540;2024-03-02T04:22:16;99886.41;;;4.23;100.00
75136;BME280;63707;52.212;9.540;2024-03-02T04:24:42;99845.13;;;4.23;100.00
75136;BME280;63707;52.212;9.540;2024-03-02T04:27:07;99834.19;;;3.75;100.00
75136;BME280;63707;52.212;9.540;2024-03-02T04:29:33;99852.53;;;3.56;100.00
75136;BME280;63707;52.212;9.540;2024-03-02T04:31:58;99887.22;;;3.67;100.00
75136;BME280;63707;52.212;9.540;2024-03-02T04:34:24;99905.06;;;3.60;100.00
75136;BME280;63707;52.212;9.540;2024-03-02T04:36:49;99941.13;;;3.75;100.00
75136;BME280;63707;52.212;9.540;2024-03-02T04:39:16;99945.91;;;3.97;100.00
75136;BME280;63707;52.212;9.540;2024-03-02T04:41:42;99948.28;;;4.17;100.00
75136;BME280;63707;52.212;9.540;2024-03-02T04:44:07;99942.56;;;4.44;100.00
75136;BME280;63707;52.212;9.540;2024-03-02T04:46:33;99891.06;;;4.70;100.00
75136;BME280;63707;52.212;9.540;2024-03-02T04:48:59;99841.41;;;4.40;100.00
75136;BME280;63707;52.212;9.540;2024-03-02T04:51:24;99801.47;;;4.27;100.00
75136;BME280;63707;52.212;9.540;2024-03-02T04:53:50;99814.00;;;3.96;100.00
75136;BME280;63707;52.212;9.540;2024-03-02T04:56:16;99824.78;;;3.96;100.00
75136;BME280;63707;52.212;9.540;2024-03-02T04:59:04;99849.03;;;3.79;100.00
75136;BME280;63707;52.212;9.540;2024-03-02T05:01:30;99874.44;;;3.69;100.00
75136;BME280;63707;52.212;9.540;2024-03-02T05:03:55;99898.19;;;3.65;100.00
75136;BME280;63707;52.212;9.540;2024-03-02T05:06:21;99914.31;;;3.49;100.00
75136;BME280;63707;52.212;9.540;2024-03-02T05:08:48;99949.72;;;3.70;100.00
75136;BME280;63707;52.212;9.540;2024-03-02T05:11:13;99972.94;;;3.63;100.00
75136;BME280;63707;52.212;9.540;2024-03-02T05:14:11;99996.34;;;3.63;100.00
75136;BME280;63707;52.212;9.540;2024-03-02T05:16:36;99990.38;;;4.01;100.00
75136;BME280;63707;52.212;9.540;2024-03-02T05:19:03;99978.44;;;4.04;100.00
75136;BME280;63707;52.212;9.540;2024-03-02T05:21:31;99973.06;;;4.53;100.00
75136;BME280;63707;52.212;9.540;2024-03-02T05:23:57;99919.59;;;4.64;100.00
75136;BME280;63707;52.212;9.540;2024-03-02T05:26:22;99859.56;;;4.54;100.00
75136;BME280;63707;52.212;9.540;2024-03-02T05:28:48;99806.38;;;4.79;100.00
75136;BME280;63707;52.212;9.540;2024-03-02T05:31:16;99732.47;;;4.80;100.00
75136;BME280;63707;52.212;9.540;2024-03-02T05:33:42;99643.47;;;4.95;100.00
75136;BME280;63707;52.212;9.540;2024-03-02T05:36:07;99592.91;;;4.89;100.00
75136;BME280;63707;52.212;9.540;2024-03-02T05:38:34;99552.13;;;4.84;100.00
75136;BME280;63707;52.212;9.540;2024-03-02T05:41:00;99526.63;;;4.18;100.00
75136;BME280;63707;52.212;9.540;2024-03-02T05:43:25;99603.34;;;4.07;100.00
75136;BME280;63707;52.212;9.540;2024-03-02T05:45:51;99651.72;;;4.08;100.00
75136;BME280;63707;52.212;9.540;2024-03-02T05:48:17;99698.13;;;3.88;100.00
75136;BME280;63707;52.212;9.540;2024-03-02T05:50:43;99767.00;;;3.74;100.00
75136;BME280;63707;52.212;9.540;2024-03-02T05:53:08;99808.94;;;3.60;100.00
75136;BME280;63707;52.212;9.540;2024-03-02T05:55:34;99855.91;;;3.66;100.00
75136;BME280;63707;52.212;9.540;2024-03-02T05:58:00;99903.38;;;3.51;100.00
75136;BME280;63707;52.212;9.540;2024-03-02T06:00:47;99945.75;;;3.40;100.00
75136;BME280;63707;52.212;9.540;2024-03-02T06:03:13;99991.88;;;3.37;100.00
75136;BME280;63707;52.212;9.540;2024-03-02T06:05:40;100052.75;;;3.64;100.00
75136;BME280;63707;52.212;9.540;2024-03-02T06:08:06;100093.38;;;3.71;100.00
75136;BME280;63707;52.212;9.540;2024-03-02T06:10:32;100115.84;;;3.79;100.00
75136;BME280;63707;52.212;9.540;2024-03-02T06:12:58;100119.41;;;4.30;100.00
75136;BME280;63707;52.212;9.540;2024-03-02T06:15:24;100085.03;;;4.65;100.00
75136;BME280;63707;52.212;9.540;2024-03-02T06:17:50;100042.88;;;4.72;100.00
75136;BME280;63707;52.212;9.540;2024-03-02T06:20:15;99965.72;;;5.02;100.00
75136;BME280;63707;52.212;9.540;2024-03-02T06:22:42;99868.13;;;5.13;100.00
75136;BME280;63707;52.212;9.540;2024-03-02T06:25:08;99767.38;;;5.13;100.00
75136;BME280;63707;52.212;9.540;2024-03-02T06:27:33;99662.34;;;5.18;100.00
75136;BME280;63707;52.212;9.540;2024-03-02T06:29:59;99576.81;;;5.33;100.00
75136;BME280;63707;52.212;9.540;2024-03-02T06:32:24;99506.91;;;5.15;100.00
75136;BME280;63707;52.212;9.540;2024-03-02T06:34:50;99475.81;;;4.90;100.00
75136;BME280;63707;52.212;9.540;2024-03-02T06:37:15;99504.03;;;5.02;100.00
75136;BME280;63707;52.212;9.540;2024-03-02T06:39:43;99477.69;;;5.48;100.00
75136;BME280;63707;52.212;9.540;2024-03-02T06:42:09;99376.38;;;5.59;100.00
75136;BME280;63707;52.212;9.540;2024-03-02T06:44:34;99347.19;;;4.82;100.00
75136;BME280;63707;52.212;9.540;2024-03-02T06:47:00;99399.41;;;4.74;100.00
75136;BME280;63707;52.212;9.540;2024-03-02T06:49:25;99426.06;;;4.69;100.00
75136;BME280;63707;52.212;9.540;2024-03-02T06:51:51;99455.31;;;4.81;100.00
75136;BME280;63707;52.212;9.540;2024-03-02T06:54:16;99460.72;;;4.81;100.00
75136;BME280;63707;52.212;9.540;2024-03-02T06:56:43;99481.41;;;4.88;100.00
75136;BME280;63707;52.212;9.540;2024-03-02T06:59:09;99457.75;;;5.05;100.00
75136;BME280;63707;52.212;9.540;2024-03-02T07:01:34;99438.19;;;5.18;100.00
75136;BME280;63707;52.212;9.540;2024-03-02T07:04:00;99397.97;;;5.37;100.00
75136;BME280;63707;52.212;9.540;2024-03-02T07:06:25;99371.94;;;5.51;100.00
75136;BME280;63707;52.212;9.540;2024-03-02T07:08:50;99334.34;;;5.71;100.00
75136;BME280;63707;52.212;9.540;2024-03-02T07:11:16;99295.16;;;6.10;100.00
75136;BME280;63707;52.212;9.540;2024-03-02T07:13:43;99203.41;;;6.43;100.00
75136;BME280;63707;52.212;9.540;2024-03-02T07:16:08;99090.66;;;6.56;100.00
75136;BME280;63707;52.212;9.540;2024-03-02T07:18:52;99031.56;;;5.99;100.00
75136;BME280;63707;52.212;9.540;2024-03-02T07:21:17;98960.53;;;6.58;100.00
75136;BME280;63707;52.212;9.540;2024-03-02T07:23:43;98906.16;;;7.06;100.00
75136;BME280;63707;52.212;9.540;2024-03-02T07:26:09;98768.56;;;7.28;100.00
75136;BME280;63707;52.212;9.540;2024-03-02T07:28:35;98720.28;;;8.24;100.00
75136;BME280;63707;52.212;9.540;2024-03-02T07:31:03;98663.06;;;8.26;100.00
75136;BME280;63707;52.212;9.540;2024-03-02T07:33:29;98647.16;;;8.29;100.00
75136;BME280;63707;52.212;9.540;2024-03-02T07:35:55;98662.50;;;8.90;100.00
75136;BME280;63707;52.212;9.540;2024-03-02T07:38:21;98671.94;;;8.58;100.00
75136;BME280;63707;52.212;9.540;2024-03-02T07:40:47;98675.91;;;8.37;100.00
75136;BME280;63707;52.212;9.540;2024-03-02T07:43:14;98679.31;;;8.50;100.00
75136;BME280;63707;52.212;9.540;2024-03-02T07:45:40;98687.44;;;8.87;100.00
75136;BME280;63707;52.212;9.540;2024-03-02T07:48:07;98923.03;;;9.35;100.00
75136;BME280;63707;52.212;9.540;2024-03-02T07:50:33;98933.25;;;9.76;100.00
75136;BME280;63707;52.212;9.540;2024-03-02T07:53:00;98935.84;;;10.61;100.00
75136;BME280;63707;52.212;9.540;2024-03-02T07:55:25;98940.16;;;12.92;100.00
75136;BME280;63707;52.212;9.540;2024-03-02T07:57:51;98926.09;;;15.55;100.00
75136;BME280;63707;52.212;9.540;2024-03-02T08:00:17;98925.81;;;15.51;100.00
75136;BME280;63707;52.212;9.540;2024-03-02T08:02:42;98934.22;;;14.38;100.00
75136;BME280;63707;52.212;9.540;2024-03-02T08:05:09;98942.31;;;15.14;100.00
75136;BME280;63707;52.212;9.540;2024-03-02T08:07:35;98936.50;;;14.46;100.00
75136;BME280;63707;52.212;9.540;2024-03-02T08:10:00;98949.13;;;13.60;100.00
75136;BME280;63707;52.212;9.540;2024-03-02T08:12:26;98953.50;;;15.44;100.00
75136;BME280;63707;52.212;9.540;2024-03-02T08:14:51;98963.53;;;16.23;100.00
75136;BME280;63707;52.212;9.540;2024-03-02T08:17:17;98968.41;;;17.14;100.00
75136;BME280;63707;52.212;9.540;2024-03-02T08:19:43;98960.50;;;16.15;100.00
75136;BME280;63707;52.212;9.540;2024-03-02T08:22:10;98969.91;;;16.39;100.00
75136;BME280;63707;52.212;9.540;2024-03-02T08:24:36;98962.13;;;14.89;100.00
75136;BME280;63707;52.212;9.540;2024-03-02T08:27:01;98967.75;;;14.24;100.00
75136;BME280;63707;52.212;9.540;2024-03-02T08:29:27;98961.66;;;13.56;100.00
75136;BME280;63707;52.212;9.540;2024-03-02T08:31:53;98957.53;;;13.53;100.00
75136;BME280;63707;52.212;9.540;2024-03-02T08:34:18;98962.25;;;13.58;100.00
75136;BME280;63707;52.212;9.540;2024-03-02T08:36:43;98964.47;;;13.61;100.00
75136;BME280;63707;52.212;9.540;2024-03-02T08:39:10;98961.53;;;13.12;100.00
75136;BME280;63707;52.212;9.540;2024-03-02T08:41:40;98959.56;;;12.91;100.00
75136;BME280;63707;52.212;9.540;2024-03-02T08:44:06;98949.25;;;12.65;100.00
75136;BME280;63707;52.212;9.540;2024-03-02T08:46:31;98955.38;;;12.26;100.00
75136;BME280;63707;52.212;9.540;2024-03-02T08:48:57;98954.78;;;11.96;100.00
75136;BME280;63707;52.212;9.540;2024-03-02T08:51:22;98958.19;;;11.04;100.00
75136;BME280;63707;52.212;9.540;2024-03-02T08:53:48;98947.75;;;11.25;100.00
75136;BME280;63707;52.212;9.540;2024-03-02T08:56:15;98947.09;;;10.53;100.00
75136;BME280;63707;52.212;9.540;2024-03-02T08:58:41;98951.91;;;10.92;100.00
75136;BME280;63707;52.212;9.540;2024-03-02T09:01:06;98947.69;;;10.55;100.00
75136;BME280;63707;52.212;9.540;2024-03-02T09:03:33;98955.25;;;10.23;100.00
75136;BME280;63707;52.212;9.540;2024-03-02T09:05:59;98954.81;;;10.07;100.00
75136;BME280;63707;52.212;9.540;2024-03-02T09:08:24;98945.25;;;10.17;100.00
75136;BME280;63707;52.212;9.540;2024-03-02T09:10:50;98964.66;;;10.08;100.00
75136;BME280;63707;52.212;9.540;2024-03-02T09:13:17;98959.88;;;10.52;100.00
75136;BME280;63707;52.212;9.540;2024-03-02T09:15:42;98975.16;;;10.05;100.00
75136;BME280;63707;52.212;9.540;2024-03-02T09:18:09;98967.44;;;10.02;100.00
75136;BME280;63707;52.212;9.540;2024-03-02T09:20:35;98964.28;;;10.05;100.00
75136;BME280;63707;52.212;9.540;2024-03-02T09:23:00;98967.81;;;10.24;100.00
75136;BME280;63707;52.212;9.540;2024-03-02T09:25:26;98957.28;;;10.27;100.00
75136;BME280;63707;52.212;9.540;2024-03-02T09:27:51;98961.69;;;10.40;100.00
75136;BME280;63707;52.212;9.540;2024-03-02T09:30:18;98957.38;;;10.51;100.00
75136;BME280;63707;52.212;9.540;2024-03-02T09:32:43;98956.69;;;10.67;100.00
75136;BME280;63707;52.212;9.540;2024-03-02T09:35:09;98968.97;;;10.99;100.00
75136;BME280;63707;52.212;9.540;2024-03-02T09:37:34;98971.94;;;11.10;100.00
75136;BME280;63707;52.212;9.540;2024-03-02T09:40:00;98979.66;;;12.11;100.00
75136;BME280;63707;52.212;9.540;2024-03-02T09:42:26;98991.72;;;12.27;100.00
75136;BME280;63707;52.212;9.540;2024-03-02T09:44:51;98997.16;;;12.39;100.00
75136;BME280;63707;52.212;9.540;2024-03-02T09:47:18;99000.19;;;13.88;100.00
75136;BME280;63707;52.212;9.540;2024-03-02T09:49:44;98997.97;;;14.77;100.00
75136;BME280;63707;52.212;9.540;2024-03-02T09:52:10;99012.69;;;16.92;100.00
75136;BME280;63707;52.212;9.540;2024-03-02T09:54:35;99009.44;;;16.23;100.00
75136;BME280;63707;52.212;9.540;2024-03-02T09:57:01;99008.19;;;15.93;100.00
75136;BME280;63707;52.212;9.540;2024-03-02T09:59:27;99006.69;;;15.33;100.00
75136;BME280;63707;52.212;9.540;2024-03-02T10:01:58;99014.94;;;16.23;100.00
75136;BME280;63707;52.212;9.540;2024-03-02T10:04:25;99019.84;;;16.88;100.00
75136;BME280;63707;52.212;9.540;2024-03-02T10:06:51;99007.56;;;15.44;100.00
75136;BME280;63707;52.212;9.540;2024-03-02T10:09:26;99012.81;;;16.45;100.00
75136;BME280;63707;52.212;9.540;2024-03-02T10:11:52;99013.69;;;16.56;100.00
75136;BME280;63707;52.212;9.540;2024-03-02T10:14:18;99009.22;;;15.82;100.00
75136;BME280;63707;52.212;9.540;2024-03-02T10:16:44;99018.03;;;15.47;100.00
75136;BME280;63707;52.212;9.540;2024-03-02T10:19:15;99012.88;;;16.60;100.00
75136;BME280;63707;52.212;9.540;2024-03-02T10:21:45;99013.94;;;15.50;100.00
75136;BME280;63707;52.212;9.540;2024-03-02T10:24:11;99016.84;;;17.41;100.00
75136;BME280;63707;52.212;9.540;2024-03-02T10:26:38;99022.03;;;16.81;100.00
75136;BME280;63707;52.212;9.540;2024-03-02T10:29:03;99011.06;;;15.02;100.00
75136;BME280;63707;52.212;9.540;2024-03-02T10:31:29;99013.59;;;15.09;100.00
75136;BME280;63707;52.212;9.540;2024-03-02T10:33:54;99008.34;;;14.27;100.00
75136;BME280;63707;52.212;9.540;2024-03-02T10:36:20;99013.53;;;13.46;100.00
75136;BME280;63707;52.212;9.540;2024-03-02T10:38:47;99011.94;;;14.10;100.00
75136;BME280;63707;52.212;9.540;2024-03-02T10:41:16;99021.50;;;14.08;100.00
75136;BME280;63707;52.212;9.540;2024-03-02T10:43:42;99021.31;;;13.54;100.00
75136;BME280;63707;52.212;9.540;2024-03-02T10:46:08;99027.47;;;14.43;100.00
75136;BME280;63707;52.212;9.540;2024-03-02T10:48:35;99020.47;;;15.11;100.00
75136;BME280;63707;52.212;9.540;2024-03-02T10:51:02;99017.03;;;15.58;100.00
75136;BME280;63707;52.212;9.540;2024-03-02T10:53:27;99014.44;;;16.36;100.00
75136;BME280;63707;52.212;9.540;2024-03-02T10:55:58;99019.09;;;15.41;100.00
75136;BME280;63707;52.212;9.540;2024-03-02T10:58:27;99018.81;;;15.42;100.00
75136;BME280;63707;52.212;9.540;2024-03-02T11:00:57;99021.97;;;14.22;100.00
75136;BME280;63707;52.212;9.540;2024-03-02T11:03:25;99018.66;;;13.98;100.00
75136;BME280;63707;52.212;9.540;2024-03-02T11:05:51;99023.94;;;14.26;100.00
75136;BME280;63707;52.212;9.540;2024-03-02T11:08:18;99022.03;;;13.66;100.00
75136;BME280;63707;52.212;9.540;2024-03-02T11:10:48;99004.47;;;13.45;100.00
75136;BME280;63707;52.212;9.540;2024-03-02T11:13:21;99000.81;;;13.06;100.00
75136;BME280;63707;52.212;9.540;2024-03-02T11:15:48;99003.69;;;13.28;100.00
75136;BME280;63707;52.212;9.540;2024-03-02T11:18:14;99007.75;;;13.64;100.00
75136;BME280;63707;52.212;9.540;2024-03-02T11:20:40;98995.47;;;13.28;100.00
75136;BME280;63707;52.212;9.540;2024-03-02T11:23:08;99001.13;;;13.77;100.00
75136;BME280;63707;52.212;9.540;2024-03-02T11:25:34;99009.47;;;14.09;100.00
75136;BME280;63707;52.212;9.540;2024-03-02T11:28:04;99018.16;;;14.23;100.00
75136;BME280;63707;52.212;9.540;2024-03-02T11:30:50;99009.09;;;16.82;100.00
75136;BME280;63707;52.212;9.540;2024-03-02T11:33:23;98997.28;;;17.37;100.00
75136;BME280;63707;52.212;9.540;2024-03-02T11:35:49;99001.13;;;17.61;100.00
75136;BME280;63707;52.212;9.540;2024-03-02T11:38:15;98991.88;;;18.27;100.00
75136;BME280;63707;52.212;9.540;2024-03-02T11:40:40;98981.09;;;18.31;100.00
75136;BME280;63707;52.212;9.540;2024-03-02T11:43:06;98972.25;;;19.56;100.00
75136;BME280;63707;52.212;9.540;2024-03-02T11:45:33;98983.84;;;18.85;100.00
75136;BME280;63707;52.212;9.540;2024-03-02T11:48:00;98966.47;;;21.56;100.00
75136;BME280;63707;52.212;9.540;2024-03-02T11:50:29;98976.66;;;20.29;100.00
75136;BME280;63707;52.212;9.540;2024-03-02T11:52:55;98975.09;;;19.75;100.00
75136;BME280;63707;52.212;9.540;2024-03-02T11:55:21;98951.09;;;22.46;100.00
75136;BME280;63707;52.212;9.540;2024-03-02T11:57:47;98941.09;;;24.41;100.00
75136;BME280;63707;52.212;9.540;2024-03-02T12:00:17;98937.81;;;24.30;100.00
75136;BME280;63707;52.212;9.540;2024-03-02T12:02:42;98960.72;;;21.52;100.00
75136;BME280;63707;52.212;9.540;2024-03-02T12:05:14;98950.09;;;21.87;100.00
75136;BME280;63707;52.212;9.540;2024-03-02T12:07:40;98960.13;;;20.48;100.00
75136;BME280;63707;52.212;9.540;2024-03-02T12:10:05;98956.41;;;19.33;100.00
75136;BME280;63707;52.212;9.540;2024-03-02T12:12:31;98935.84;;;22.57;100.00
75136;BME280;63707;52.212;9.540;2024-03-02T12:14:56;98944.28;;;18.55;100.00
75136;BME280;63707;52.212;9.540;2024-03-02T12:17:22;98934.63;;;21.53;100.00
75136;BME280;63707;52.212;9.540;2024-03-02T12:19:48;98938.97;;;21.59;100.00
75136;BME280;63707;52.212;9.540;2024-03-02T12:22:15;98935.03;;;21.47;100.00
75136;BME280;63707;52.212;9.540;2024-03-02T12:24:41;98910.16;;;24.86;100.00
75136;BME280;63707;52.212;9.540;2024-03-02T12:27:11;98914.44;;;25.00;100.00
75136;BME280;63707;52.212;9.540;2024-03-02T12:29:38;98918.06;;;23.16;100.00
75136;BME280;63707;52.212;9.540;2024-03-02T12:32:05;98907.59;;;25.62;100.00
75136;BME280;63707;52.212;9.540;2024-03-02T12:34:31;98897.53;;;25.23;100.00
75136;BME280;63707;52.212;9.540;2024-03-02T12:36:57;98893.66;;;27.01;100.00
75136;BME280;63707;52.212;9.540;2024-03-02T12:39:24;98891.69;;;27.92;100.00
75136;BME280;63707;52.212;9.540;2024-03-02T12:41:50;98895.31;;;28.29;100.00
75136;BME280;63707;52.212;9.540;2024-03-02T12:44:16;98896.34;;;27.42;100.00
75136;BME280;63707;52.212;9.540;2024-03-02T12:46:41;98892.16;;;28.06;100.00
75136;BME280;63707;52.212;9.540;2024-03-02T12:49:09;98897.69;;;27.24;100.00
75136;BME280;63707;52.212;9.540;2024-03-02T12:51:38;98902.97;;;25.19;100.00